sensor_id;sensor_type;location;lat;lon;timestamp;P1;durP1;ratioP1;P2;durP2;ratioP2
16127;SDS011;8168;49.036;7.690;2023-02-18T00:02:27;5.50;;;4.60;;
16127;SDS011;8168;49.036;7.690;2023-02-18T00:04:57;5.23;;;4.63;;
16127;SDS011;8168;49.036;7.690;2023-02-18T00:07:32;6.13;;;4.80;;
16127;SDS011;8168;49.036;7.690;2023-02-18T00:10:05;7.07;;;4.90;;
16127;SDS011;8168;49.036;7.690;2023-02-18T00:12:40;5.73;;;3.87;;
16127;SDS011;8168;49.036;7.690;2023-02-18T00:15:11;5.77;;;4.63;;
16127;SDS011;8168;49.036;7.690;2023-02-18T00:17:42;5.80;;;4.83;;
16127;SDS011;8168;49.036;7.690;2023-02-18T00:20:13;5.50;;;4.80;;
16127;SDS011;8168;49.036;7.690;2023-02-18T00:22:43;4.93;;;4.20;;
16127;SDS011;8168;49.036;7.690;2023-02-18T00:25:14;5.37;;;4.60;;
16127;SDS011;8168;49.036;7.690;2023-02-18T00:27:45;5.33;;;4.37;;
16127;SDS011;8168;49.036;7.690;2023-02-18T00:30:15;6.03;;;4.63;;
16127;SDS011;8168;49.036;7.690;2023-02-18T00:32:46;5.67;;;4.83;;
16127;SDS011;8168;49.036;7.690;2023-02-18T00:35:17;4.30;;;3.77;;
16127;SDS011;8168;49.036;7.690;2023-02-18T00:37:49;6.80;;;5.20;;
16127;SDS011;8168;49.036;7.690;2023-02-18T00:40:21;5.53;;;4.93;;
16127;SDS011;8168;49.036;7.690;2023-02-18T00:42:52;5.63;;;4.30;;
16127;SDS011;8168;49.036;7.690;2023-02-18T00:45:23;6.77;;;4.53;;
16127;SDS011;8168;49.036;7.690;2023-02-18T00:47:53;5.57;;;4.53;;
16127;SDS011;8168;49.036;7.690;2023-02-18T00:50:24;5.13;;;3.93;;
16127;SDS011;8168;49.036;7.690;2023-02-18T00:52:54;5.90;;;4.10;;
16127;SDS011;8168;49.036;7.690;2023-02-18T00:55:25;5.07;;;4.47;;
16127;SDS011;8168;49.036;7.690;2023-02-18T00:57:55;4.83;;;4.33;;
16127;SDS011;8168;49.036;7.690;2023-02-18T01:00:26;4.17;;;3.77;;
16127;SDS011;8168;49.036;7.690;2023-02-18T01:02:57;5.93;;;4.63;;
16127;SDS011;8168;49.036;7.690;2023-02-18T01:05:27;4.33;;;3.83;;
16127;SDS011;8168;49.036;7.690;2023-02-18T01:07:58;4.93;;;4.03;;
16127;SDS011;8168;49.036;7.690;2023-02-18T01:10:29;6.73;;;4.20;;
16127;SDS011;8168;49.036;7.690;2023-02-18T01:13:00;5.37;;;4.57;;
16127;SDS011;8168;49.036;7.690;2023-02-18T01:15:33;7.57;;;4.33;;
16127;SDS011;8168;49.036;7.690;2023-02-18T01:18:04;5.73;;;4.17;;
16127;SDS011;8168;49.036;7.690;2023-02-18T01:20:35;4.80;;;4.30;;
16127;SDS011;8168;49.036;7.690;2023-02-18T01:23:07;5.80;;;4.57;;
16127;SDS011;8168;49.036;7.690;2023-02-18T01:25:38;5.07;;;4.57;;
16127;SDS011;8168;49.036;7.690;2023-02-18T01:28:10;4.57;;;3.90;;
16127;SDS011;8168;49.036;7.690;2023-02-18T01:30:42;4.87;;;4.37;;
16127;SDS011;8168;49.036;7.690;2023-02-18T01:33:12;5.57;;;4.90;;
16127;SDS011;8168;49.036;7.690;2023-02-18T01:35:43;6.53;;;4.63;;
16127;SDS011;8168;49.036;7.690;2023-02-18T01:38:13;4.87;;;4.23;;
16127;SDS011;8168;49.036;7.690;2023-02-18T01:40:46;5.40;;;4.03;;
16127;SDS011;8168;49.036;7.690;2023-02-18T01:43:22;5.70;;;4.33;;
16127;SDS011;8168;49.036;7.690;2023-02-18T01:48:47;5.03;;;4.53;;
16127;SDS011;8168;49.036;7.690;2023-02-18T01:51:40;5.53;;;4.20;;
16127;SDS011;8168;49.036;7.690;2023-02-18T01:54:20;6.03;;;4.30;;
16127;SDS011;8168;49.036;7.690;2023-02-18T01:57:08;5.23;;;4.30;;
16127;SDS011;8168;49.036;7.690;2023-02-18T01:59:43;7.43;;;4.33;;
16127;SDS011;8168;49.036;7.690;2023-02-18T02:02:19;5.87;;;4.27;;
16127;SDS011;8168;49.036;7.690;2023-02-18T02:04:52;5.73;;;4.47;;
16127;SDS011;8168;49.036;7.690;2023-02-18T02:07:23;5.23;;;4.73;;
16127;SDS011;8168;49.036;7.690;2023-02-18T02:09:56;7.47;;;4.63;;
16127;SDS011;8168;49.036;7.690;2023-02-18T02:18:20;5.87;;;4.73;;
16127;SDS011;8168;49.036;7.690;2023-02-18T02:48:37;6.13;;;4.83;;
16127;SDS011;8168;49.036;7.690;2023-02-18T02:53:54;7.27;;;4.80;;
16127;SDS011;8168;49.036;7.690;2023-02-18T02:56:39;6.53;;;5.30;;
16127;SDS011;8168;49.036;7.690;2023-02-18T02:59:12;5.53;;;4.77;;
16127;SDS011;8168;49.036;7.690;2023-02-18T03:04:51;6.57;;;5.10;;
16127;SDS011;8168;49.036;7.690;2023-02-18T03:16:10;7.13;;;5.47;;
16127;SDS011;8168;49.036;7.690;2023-02-18T03:18:47;7.63;;;5.27;;
16127;SDS011;8168;49.036;7.690;2023-02-18T03:21:28;6.03;;;5.40;;
16127;SDS011;8168;49.036;7.690;2023-02-18T03:24:05;6.47;;;5.07;;
16127;SDS011;8168;49.036;7.690;2023-02-18T03:26:53;6.10;;;5.17;;
16127;SDS011;8168;49.036;7.690;2023-02-18T03:29:27;5.90;;;4.77;;
16127;SDS011;8168;49.036;7.690;2023-02-18T03:31:59;6.03;;;5.33;;
16127;SDS011;8168;49.036;7.690;2023-02-18T03:34:38;6.50;;;5.70;;
16127;SDS011;8168;49.036;7.690;2023-02-18T03:37:13;5.57;;;4.97;;
16127;SDS011;8168;49.036;7.690;2023-02-18T03:39:46;6.93;;;5.50;;
16127;SDS011;8168;49.036;7.690;2023-02-18T03:42:27;6.23;;;5.10;;
16127;SDS011;8168;49.036;7.690;2023-02-18T03:44:58;5.10;;;4.60;;
16127;SDS011;8168;49.036;7.690;2023-02-18T03:47:29;4.50;;;3.57;;
16127;SDS011;8168;49.036;7.690;2023-02-18T03:50:00;5.47;;;4.80;;
16127;SDS011;8168;49.036;7.690;2023-02-18T03:52:30;6.43;;;4.77;;
16127;SDS011;8168;49.036;7.690;2023-02-18T03:55:04;5.13;;;4.63;;
16127;SDS011;8168;49.036;7.690;2023-02-18T03:57:35;5.43;;;4.27;;
16127;SDS011;8168;49.036;7.690;2023-02-18T04:00:06;6.73;;;4.90;;
16127;SDS011;8168;49.036;7.690;2023-02-18T04:02:38;6.87;;;5.00;;
16127;SDS011;8168;49.036;7.690;2023-02-18T04:05:09;6.13;;;4.80;;
16127;SDS011;8168;49.036;7.690;2023-02-18T04:07:42;5.30;;;4.50;;
16127;SDS011;8168;49.036;7.690;2023-02-18T04:10:12;6.33;;;4.60;;
16127;SDS011;8168;49.036;7.690;2023-02-18T04:12:43;7.33;;;4.57;;
16127;SDS011;8168;49.036;7.690;2023-02-18T04:15:14;5.57;;;4.73;;
16127;SDS011;8168;49.036;7.690;2023-02-18T04:17:44;4.93;;;4.33;;
16127;SDS011;8168;49.036;7.690;2023-02-18T04:20:15;6.80;;;5.23;;
16127;SDS011;8168;49.036;7.690;2023-02-18T04:22:46;5.20;;;4.27;;
16127;SDS011;8168;49.036;7.690;2023-02-18T04:25:16;6.03;;;4.50;;
16127;SDS011;8168;49.036;7.690;2023-02-18T04:27:47;7.13;;;5.17;;
16127;SDS011;8168;49.036;7.690;2023-02-18T04:30:18;4.80;;;4.13;;
16127;SDS011;8168;49.036;7.690;2023-02-18T04:32:48;6.80;;;4.63;;
16127;SDS011;8168;49.036;7.690;2023-02-18T04:35:19;6.33;;;4.87;;
16127;SDS011;8168;49.036;7.690;2023-02-18T04:37:49;5.63;;;5.00;;
16127;SDS011;8168;49.036;7.690;2023-02-18T04:40:20;5.03;;;4.53;;
16127;SDS011;8168;49.036;7.690;2023-02-18T04:42:51;6.53;;;4.63;;
16127;SDS011;8168;49.036;7.690;2023-02-18T04:45:21;6.67;;;4.37;;
16127;SDS011;8168;49.036;7.690;2023-02-18T04:47:52;5.30;;;4.80;;
16127;SDS011;8168;49.036;7.690;2023-02-18T04:50:23;6.57;;;4.60;;
16127;SDS011;8168;49.036;7.690;2023-02-18T04:52:54;6.83;;;4.23;;
16127;SDS011;8168;49.036;7.690;2023-02-18T04:55:25;5.67;;;4.63;;
16127;SDS011;8168;49.036;7.690;2023-02-18T04:57:55;6.43;;;4.37;;
16127;SDS011;8168;49.036;7.690;2023-02-18T05:00:26;5.23;;;4.20;;
16127;SDS011;8168;49.036;7.690;2023-02-18T05:02:58;5.63;;;4.70;;
16127;SDS011;8168;49.036;7.690;2023-02-18T05:05:28;6.17;;;4.83;;
16127;SDS011;8168;49.036;7.690;2023-02-18T05:07:59;6.67;;;4.70;;
16127;SDS011;8168;49.036;7.690;2023-02-18T05:10:30;5.07;;;4.30;;
16127;SDS011;8168;49.036;7.690;2023-02-18T05:13:00;6.27;;;4.80;;
16127;SDS011;8168;49.036;7.690;2023-02-18T05:15:31;5.27;;;3.67;;
16127;SDS011;8168;49.036;7.690;2023-02-18T05:18:02;5.03;;;4.17;;
16127;SDS011;8168;49.036;7.690;2023-02-18T05:20:33;5.53;;;4.43;;
16127;SDS011;8168;49.036;7.690;2023-02-18T05:23:04;5.00;;;4.23;;
16127;SDS011;8168;49.036;7.690;2023-02-18T05:25:34;4.97;;;4.13;;
16127;SDS011;8168;49.036;7.690;2023-02-18T05:28:05;5.17;;;4.20;;
16127;SDS011;8168;49.036;7.690;2023-02-18T05:30:36;4.47;;;3.90;;
16127;SDS011;8168;49.036;7.690;2023-02-18T05:33:06;5.63;;;4.47;;
16127;SDS011;8168;49.036;7.690;2023-02-18T05:35:37;5.83;;;4.17;;
16127;SDS011;8168;49.036;7.690;2023-02-18T05:38:08;6.27;;;4.53;;
16127;SDS011;8168;49.036;7.690;2023-02-18T05:40:39;6.43;;;3.63;;
16127;SDS011;8168;49.036;7.690;2023-02-18T05:43:10;4.87;;;4.37;;
16127;SDS011;8168;49.036;7.690;2023-02-18T05:45:41;4.90;;;4.37;;
16127;SDS011;8168;49.036;7.690;2023-02-18T05:48:11;4.57;;;4.07;;
16127;SDS011;8168;49.036;7.690;2023-02-18T05:50:42;5.13;;;4.03;;
16127;SDS011;8168;49.036;7.690;2023-02-18T05:53:13;4.40;;;3.70;;
16127;SDS011;8168;49.036;7.690;2023-02-18T05:55:43;4.80;;;3.67;;
16127;SDS011;8168;49.036;7.690;2023-02-18T05:58:14;4.87;;;4.03;;
16127;SDS011;8168;49.036;7.690;2023-02-18T06:00:46;4.37;;;3.90;;
16127;SDS011;8168;49.036;7.690;2023-02-18T06:03:16;6.23;;;4.27;;
16127;SDS011;8168;49.036;7.690;2023-02-18T06:05:50;4.67;;;3.87;;
16127;SDS011;8168;49.036;7.690;2023-02-18T06:08:21;4.43;;;3.77;;
16127;SDS011;8168;49.036;7.690;2023-02-18T06:10:53;4.73;;;3.80;;
16127;SDS011;8168;49.036;7.690;2023-02-18T06:13:24;4.37;;;3.90;;
16127;SDS011;8168;49.036;7.690;2023-02-18T06:15:54;4.60;;;3.67;;
16127;SDS011;8168;49.036;7.690;2023-02-18T06:18:25;7.23;;;3.60;;
16127;SDS011;8168;49.036;7.690;2023-02-18T06:20:56;6.40;;;3.23;;
16127;SDS011;8168;49.036;7.690;2023-02-18T06:23:26;4.77;;;3.87;;
16127;SDS011;8168;49.036;7.690;2023-02-18T06:25:57;4.23;;;2.57;;
16127;SDS011;8168;49.036;7.690;2023-02-18T06:28:28;3.37;;;2.80;;
16127;SDS011;8168;49.036;7.690;2023-02-18T06:30:58;4.50;;;3.77;;
16127;SDS011;8168;49.036;7.690;2023-02-18T06:33:29;5.17;;;3.80;;
16127;SDS011;8168;49.036;7.690;2023-02-18T06:36:01;4.13;;;2.83;;
16127;SDS011;8168;49.036;7.690;2023-02-18T06:38:37;4.73;;;4.13;;
16127;SDS011;8168;49.036;7.690;2023-02-18T06:41:12;3.43;;;3.13;;
16127;SDS011;8168;49.036;7.690;2023-02-18T06:43:43;4.00;;;3.47;;
16127;SDS011;8168;49.036;7.690;2023-02-18T06:46:14;3.80;;;3.43;;
16127;SDS011;8168;49.036;7.690;2023-02-18T06:48:44;4.40;;;3.50;;
16127;SDS011;8168;49.036;7.690;2023-02-18T06:51:15;3.93;;;3.40;;
16127;SDS011;8168;49.036;7.690;2023-02-18T06:53:48;4.00;;;3.37;;
16127;SDS011;8168;49.036;7.690;2023-02-18T06:56:18;3.70;;;3.23;;
16127;SDS011;8168;49.036;7.690;2023-02-18T06:58:49;4.30;;;3.30;;
16127;SDS011;8168;49.036;7.690;2023-02-18T07:01:19;4.20;;;3.37;;
16127;SDS011;8168;49.036;7.690;2023-02-18T07:03:50;4.40;;;3.33;;
16127;SDS011;8168;49.036;7.690;2023-02-18T07:06:21;3.90;;;3.30;;
16127;SDS011;8168;49.036;7.690;2023-02-18T07:08:51;4.00;;;3.20;;
16127;SDS011;8168;49.036;7.690;2023-02-18T07:11:22;3.87;;;3.07;;
16127;SDS011;8168;49.036;7.690;2023-02-18T07:13:53;4.07;;;3.53;;
16127;SDS011;8168;49.036;7.690;2023-02-18T07:16:23;5.57;;;3.67;;
16127;SDS011;8168;49.036;7.690;2023-02-18T07:18:54;5.30;;;3.93;;
16127;SDS011;8168;49.036;7.690;2023-02-18T07:21:24;4.13;;;3.40;;
16127;SDS011;8168;49.036;7.690;2023-02-18T07:23:55;3.50;;;3.03;;
16127;SDS011;8168;49.036;7.690;2023-02-18T07:26:26;3.20;;;2.90;;
16127;SDS011;8168;49.036;7.690;2023-02-18T07:28:56;3.10;;;2.70;;
16127;SDS011;8168;49.036;7.690;2023-02-18T07:31:27;4.27;;;3.53;;
16127;SDS011;8168;49.036;7.690;2023-02-18T07:33:58;4.33;;;3.33;;
16127;SDS011;8168;49.036;7.690;2023-02-18T07:36:28;4.60;;;3.17;;
16127;SDS011;8168;49.036;7.690;2023-02-18T07:38:59;4.93;;;3.77;;
16127;SDS011;8168;49.036;7.690;2023-02-18T07:41:30;7.33;;;3.10;;
16127;SDS011;8168;49.036;7.690;2023-02-18T07:44:00;4.90;;;3.10;;
16127;SDS011;8168;49.036;7.690;2023-02-18T07:46:31;3.80;;;3.00;;
16127;SDS011;8168;49.036;7.690;2023-02-18T07:49:02;3.63;;;3.23;;
16127;SDS011;8168;49.036;7.690;2023-02-18T07:51:32;4.43;;;3.10;;
16127;SDS011;8168;49.036;7.690;2023-02-18T07:54:03;3.33;;;2.80;;
16127;SDS011;8168;49.036;7.690;2023-02-18T07:56:34;3.23;;;2.73;;
16127;SDS011;8168;49.036;7.690;2023-02-18T07:59:04;4.17;;;3.13;;
16127;SDS011;8168;49.036;7.690;2023-02-18T08:01:35;4.33;;;3.40;;
16127;SDS011;8168;49.036;7.690;2023-02-18T08:04:06;3.43;;;2.70;;
16127;SDS011;8168;49.036;7.690;2023-02-18T08:06:38;3.43;;;2.87;;
16127;SDS011;8168;49.036;7.690;2023-02-18T08:09:11;3.13;;;2.83;;
16127;SDS011;8168;49.036;7.690;2023-02-18T08:11:43;3.63;;;2.40;;
16127;SDS011;8168;49.036;7.690;2023-02-18T08:14:14;3.87;;;3.20;;
16127;SDS011;8168;49.036;7.690;2023-02-18T08:16:44;3.40;;;2.80;;
16127;SDS011;8168;49.036;7.690;2023-02-18T08:19:15;3.40;;;3.03;;
16127;SDS011;8168;49.036;7.690;2023-02-18T08:21:46;4.80;;;3.40;;
16127;SDS011;8168;49.036;7.690;2023-02-18T08:24:16;4.80;;;3.60;;
16127;SDS011;8168;49.036;7.690;2023-02-18T08:26:47;3.60;;;3.10;;
16127;SDS011;8168;49.036;7.690;2023-02-18T08:29:17;3.80;;;2.87;;
16127;SDS011;8168;49.036;7.690;2023-02-18T08:31:48;2.80;;;2.30;;
16127;SDS011;8168;49.036;7.690;2023-02-18T08:34:21;4.60;;;3.23;;
16127;SDS011;8168;49.036;7.690;2023-02-18T08:36:51;5.13;;;3.20;;
16127;SDS011;8168;49.036;7.690;2023-02-18T08:39:22;3.23;;;2.70;;
16127;SDS011;8168;49.036;7.690;2023-02-18T08:41:53;3.90;;;3.50;;
16127;SDS011;8168;49.036;7.690;2023-02-18T08:44:23;3.20;;;2.40;;
16127;SDS011;8168;49.036;7.690;2023-02-18T08:46:54;2.57;;;2.30;;
16127;SDS011;8168;49.036;7.690;2023-02-18T08:49:24;3.90;;;2.73;;
16127;SDS011;8168;49.036;7.690;2023-02-18T08:51:55;3.23;;;2.83;;
16127;SDS011;8168;49.036;7.690;2023-02-18T08:54:26;2.93;;;2.63;;
16127;SDS011;8168;49.036;7.690;2023-02-18T08:56:56;3.27;;;2.73;;
16127;SDS011;8168;49.036;7.690;2023-02-18T08:59:27;4.00;;;2.97;;
16127;SDS011;8168;49.036;7.690;2023-02-18T09:01:58;2.60;;;2.13;;
16127;SDS011;8168;49.036;7.690;2023-02-18T09:04:28;3.33;;;2.40;;
16127;SDS011;8168;49.036;7.690;2023-02-18T09:06:59;3.07;;;2.30;;
16127;SDS011;8168;49.036;7.690;2023-02-18T09:09:31;3.90;;;2.33;;
16127;SDS011;8168;49.036;7.690;2023-02-18T09:12:02;3.40;;;2.13;;
16127;SDS011;8168;49.036;7.690;2023-02-18T09:14:33;3.60;;;2.10;;
16127;SDS011;8168;49.036;7.690;2023-02-18T09:17:03;2.90;;;2.20;;
16127;SDS011;8168;49.036;7.690;2023-02-18T09:19:34;2.77;;;2.20;;
16127;SDS011;8168;49.036;7.690;2023-02-18T09:22:05;1.93;;;1.80;;
16127;SDS011;8168;49.036;7.690;2023-02-18T09:24:38;2.20;;;1.97;;
16127;SDS011;8168;49.036;7.690;2023-02-18T09:27:10;2.00;;;1.80;;
16127;SDS011;8168;49.036;7.690;2023-02-18T09:29:41;2.13;;;1.93;;
16127;SDS011;8168;49.036;7.690;2023-02-18T09:32:13;2.37;;;2.17;;
16127;SDS011;8168;49.036;7.690;2023-02-18T09:34:44;2.83;;;2.17;;
16127;SDS011;8168;49.036;7.690;2023-02-18T09:37:15;2.10;;;1.83;;
16127;SDS011;8168;49.036;7.690;2023-02-18T09:39:45;2.50;;;1.80;;
16127;SDS011;8168;49.036;7.690;2023-02-18T09:42:17;3.50;;;2.50;;
16127;SDS011;8168;49.036;7.690;2023-02-18T09:44:53;2.20;;;2.00;;
16127;SDS011;8168;49.036;7.690;2023-02-18T09:47:37;3.63;;;1.83;;
16127;SDS011;8168;49.036;7.690;2023-02-18T09:52:47;2.97;;;2.60;;
16127;SDS011;8168;49.036;7.690;2023-02-18T09:58:04;2.73;;;2.20;;
16127;SDS011;8168;49.036;7.690;2023-02-18T10:00:49;1.90;;;1.70;;
16127;SDS011;8168;49.036;7.690;2023-02-18T10:03:24;2.53;;;1.83;;
16127;SDS011;8168;49.036;7.690;2023-02-18T10:08:28;2.43;;;2.13;;
16127;SDS011;8168;49.036;7.690;2023-02-18T10:11:05;2.13;;;1.73;;
16127;SDS011;8168;49.036;7.690;2023-02-18T10:13:45;2.30;;;2.00;;
16127;SDS011;8168;49.036;7.690;2023-02-18T10:16:17;2.70;;;1.93;;
16127;SDS011;8168;49.036;7.690;2023-02-18T10:18:49;2.37;;;1.80;;
16127;SDS011;8168;49.036;7.690;2023-02-18T10:21:26;1.13;;;1.03;;
16127;SDS011;8168;49.036;7.690;2023-02-18T10:27:02;1.87;;;1.43;;
16127;SDS011;8168;49.036;7.690;2023-02-18T10:29:35;1.90;;;1.80;;
16127;SDS011;8168;49.036;7.690;2023-02-18T10:44:11;1.27;;;1.17;;
16127;SDS011;8168;49.036;7.690;2023-02-18T10:50:16;1.40;;;1.30;;
16127;SDS011;8168;49.036;7.690;2023-02-18T10:52:56;2.83;;;1.57;;
16127;SDS011;8168;49.036;7.690;2023-02-18T10:55:35;2.47;;;1.37;;
16127;SDS011;8168;49.036;7.690;2023-02-18T11:00:55;2.50;;;1.60;;
16127;SDS011;8168;49.036;7.690;2023-02-18T11:03:43;1.57;;;1.47;;
16127;SDS011;8168;49.036;7.690;2023-02-18T11:06:20;1.63;;;1.47;;
16127;SDS011;8168;49.036;7.690;2023-02-18T11:11:56;2.50;;;2.00;;
16127;SDS011;8168;49.036;7.690;2023-02-18T11:14:41;1.87;;;1.50;;
16127;SDS011;8168;49.036;7.690;2023-02-18T11:17:18;2.50;;;2.10;;
16127;SDS011;8168;49.036;7.690;2023-02-18T11:19:53;1.73;;;1.53;;
16127;SDS011;8168;49.036;7.690;2023-02-18T11:22:29;3.40;;;2.23;;
16127;SDS011;8168;49.036;7.690;2023-02-18T11:25:17;3.00;;;1.90;;
16127;SDS011;8168;49.036;7.690;2023-02-18T11:27:54;2.20;;;1.50;;
16127;SDS011;8168;49.036;7.690;2023-02-18T11:30:32;2.10;;;1.90;;
16127;SDS011;8168;49.036;7.690;2023-02-18T11:33:23;1.73;;;1.63;;
16127;SDS011;8168;49.036;7.690;2023-02-18T11:36:16;2.90;;;2.03;;
16127;SDS011;8168;49.036;7.690;2023-02-18T11:39:40;2.50;;;2.00;;
16127;SDS011;8168;49.036;7.690;2023-02-18T11:41:56;2.63;;;1.67;;
16127;SDS011;8168;49.036;7.690;2023-02-18T11:44:40;2.20;;;1.97;;
16127;SDS011;8168;49.036;7.690;2023-02-18T11:52:40;2.93;;;2.37;;
16127;SDS011;8168;49.036;7.690;2023-02-18T11:55:20;3.20;;;2.43;;
16127;SDS011;8168;49.036;7.690;2023-02-18T12:00:35;2.50;;;2.27;;
16127;SDS011;8168;49.036;7.690;2023-02-18T12:03:41;1.77;;;1.50;;
16127;SDS011;8168;49.036;7.690;2023-02-18T12:06:14;2.43;;;1.70;;
16127;SDS011;8168;49.036;7.690;2023-02-18T12:08:54;2.03;;;1.10;;
16127;SDS011;8168;49.036;7.690;2023-02-18T12:11:30;2.27;;;2.07;;
16127;SDS011;8168;49.036;7.690;2023-02-18T12:14:17;1.97;;;1.33;;
16127;SDS011;8168;49.036;7.690;2023-02-18T12:16:56;1.77;;;1.47;;
16127;SDS011;8168;49.036;7.690;2023-02-18T12:19:59;1.90;;;1.67;;
16127;SDS011;8168;49.036;7.690;2023-02-18T12:25:20;1.43;;;1.30;;
16127;SDS011;8168;49.036;7.690;2023-02-18T12:50:47;2.13;;;1.40;;
16127;SDS011;8168;49.036;7.690;2023-02-18T13:04:57;2.50;;;2.30;;
16127;SDS011;8168;49.036;7.690;2023-02-18T13:12:52;6.70;;;3.60;;
16127;SDS011;8168;49.036;7.690;2023-02-18T13:15:38;4.93;;;3.13;;
16127;SDS011;8168;49.036;7.690;2023-02-18T13:18:33;3.47;;;3.03;;
16127;SDS011;8168;49.036;7.690;2023-02-18T13:21:12;3.90;;;2.80;;
16127;SDS011;8168;49.036;7.690;2023-02-18T13:23:47;2.50;;;2.13;;
16127;SDS011;8168;49.036;7.690;2023-02-18T13:26:24;3.80;;;3.30;;
16127;SDS011;8168;49.036;7.690;2023-02-18T13:32:08;3.83;;;3.20;;
16127;SDS011;8168;49.036;7.690;2023-02-18T13:41:25;4.47;;;2.90;;
16127;SDS011;8168;49.036;7.690;2023-02-18T13:43:57;3.93;;;3.47;;
16127;SDS011;8168;49.036;7.690;2023-02-18T13:46:27;4.20;;;3.53;;
16127;SDS011;8168;49.036;7.690;2023-02-18T13:49:10;8.40;;;3.57;;
16127;SDS011;8168;49.036;7.690;2023-02-18T13:51:45;4.57;;;3.73;;
16127;SDS011;8168;49.036;7.690;2023-02-18T13:54:20;4.27;;;3.67;;
16127;SDS011;8168;49.036;7.690;2023-02-18T13:59:45;5.07;;;3.90;;
16127;SDS011;8168;49.036;7.690;2023-02-18T14:02:32;3.80;;;3.40;;
16127;SDS011;8168;49.036;7.690;2023-02-18T14:07:45;4.50;;;3.63;;
16127;SDS011;8168;49.036;7.690;2023-02-18T14:10:35;4.90;;;3.70;;
16127;SDS011;8168;49.036;7.690;2023-02-18T14:13:20;4.60;;;3.60;;
16127;SDS011;8168;49.036;7.690;2023-02-18T14:16:09;6.77;;;3.70;;
16127;SDS011;8168;49.036;7.690;2023-02-18T14:24:03;3.70;;;3.00;;
16127;SDS011;8168;49.036;7.690;2023-02-18T14:26:38;6.87;;;4.23;;
16127;SDS011;8168;49.036;7.690;2023-02-18T14:29:23;4.93;;;4.20;;
16127;SDS011;8168;49.036;7.690;2023-02-18T14:32:00;5.80;;;3.97;;
16127;SDS011;8168;49.036;7.690;2023-02-18T14:37:29;4.57;;;3.70;;
16127;SDS011;8168;49.036;7.690;2023-02-18T14:40:24;5.80;;;4.50;;
16127;SDS011;8168;49.036;7.690;2023-02-18T14:51:45;5.53;;;3.50;;
16127;SDS011;8168;49.036;7.690;2023-02-18T14:54:18;5.63;;;3.90;;
16127;SDS011;8168;49.036;7.690;2023-02-18T14:56:57;4.50;;;3.70;;
16127;SDS011;8168;49.036;7.690;2023-02-18T14:59:39;5.10;;;3.93;;
16127;SDS011;8168;49.036;7.690;2023-02-18T15:02:18;4.50;;;3.90;;
16127;SDS011;8168;49.036;7.690;2023-02-18T15:04:50;4.77;;;4.10;;
16127;SDS011;8168;49.036;7.690;2023-02-18T15:07:21;5.43;;;4.20;;
16127;SDS011;8168;49.036;7.690;2023-02-18T15:09:52;4.23;;;3.50;;
16127;SDS011;8168;49.036;7.690;2023-02-18T15:12:23;3.87;;;3.17;;
16127;SDS011;8168;49.036;7.690;2023-02-18T15:14:54;4.10;;;3.57;;
16127;SDS011;8168;49.036;7.690;2023-02-18T15:17:31;5.73;;;3.83;;
16127;SDS011;8168;49.036;7.690;2023-02-18T15:20:03;5.77;;;3.93;;
16127;SDS011;8168;49.036;7.690;2023-02-18T15:22:35;4.70;;;3.47;;
16127;SDS011;8168;49.036;7.690;2023-02-18T15:25:06;4.33;;;3.53;;
16127;SDS011;8168;49.036;7.690;2023-02-18T15:27:42;6.47;;;4.43;;
16127;SDS011;8168;49.036;7.690;2023-02-18T15:30:26;4.90;;;3.47;;
16127;SDS011;8168;49.036;7.690;2023-02-18T15:32:59;4.77;;;3.90;;
16127;SDS011;8168;49.036;7.690;2023-02-18T15:35:31;4.10;;;3.43;;
16127;SDS011;8168;49.036;7.690;2023-02-18T15:38:02;4.17;;;3.53;;
16127;SDS011;8168;49.036;7.690;2023-02-18T15:40:34;3.80;;;3.40;;
16127;SDS011;8168;49.036;7.690;2023-02-18T15:43:07;4.17;;;3.77;;
16127;SDS011;8168;49.036;7.690;2023-02-18T15:45:42;4.10;;;3.20;;
16127;SDS011;8168;49.036;7.690;2023-02-18T15:48:23;4.00;;;3.33;;
16127;SDS011;8168;49.036;7.690;2023-02-18T15:51:01;4.80;;;3.20;;
16127;SDS011;8168;49.036;7.690;2023-02-18T15:53:35;3.50;;;3.17;;
16127;SDS011;8168;49.036;7.690;2023-02-18T15:56:09;3.47;;;3.17;;
16127;SDS011;8168;49.036;7.690;2023-02-18T15:58:44;3.73;;;3.33;;
16127;SDS011;8168;49.036;7.690;2023-02-18T16:01:25;3.70;;;3.07;;
16127;SDS011;8168;49.036;7.690;2023-02-18T16:03:57;3.20;;;2.80;;
16127;SDS011;8168;49.036;7.690;2023-02-18T16:06:29;3.57;;;3.27;;
16127;SDS011;8168;49.036;7.690;2023-02-18T16:09:14;3.47;;;2.83;;
16127;SDS011;8168;49.036;7.690;2023-02-18T16:11:55;3.43;;;3.10;;
16127;SDS011;8168;49.036;7.690;2023-02-18T16:14:30;4.83;;;3.33;;
16127;SDS011;8168;49.036;7.690;2023-02-18T16:17:19;3.70;;;3.10;;
16127;SDS011;8168;49.036;7.690;2023-02-18T16:19:53;4.07;;;2.80;;
16127;SDS011;8168;49.036;7.690;2023-02-18T16:25:05;4.67;;;3.23;;
16127;SDS011;8168;49.036;7.690;2023-02-18T16:27:49;3.93;;;3.33;;
16127;SDS011;8168;49.036;7.690;2023-02-18T16:30:27;4.70;;;4.10;;
16127;SDS011;8168;49.036;7.690;2023-02-18T16:33:00;4.03;;;3.30;;
16127;SDS011;8168;49.036;7.690;2023-02-18T16:35:30;3.50;;;2.83;;
16127;SDS011;8168;49.036;7.690;2023-02-18T16:38:01;1.70;;;1.60;;
16127;SDS011;8168;49.036;7.690;2023-02-18T16:43:13;3.67;;;3.20;;
16127;SDS011;8168;49.036;7.690;2023-02-18T16:45:52;3.30;;;3.00;;
16127;SDS011;8168;49.036;7.690;2023-02-18T16:48:34;5.23;;;3.30;;
16127;SDS011;8168;49.036;7.690;2023-02-18T16:53:45;4.17;;;3.20;;
16127;SDS011;8168;49.036;7.690;2023-02-18T16:56:17;3.57;;;2.90;;
16127;SDS011;8168;49.036;7.690;2023-02-18T16:58:53;3.70;;;3.40;;
16127;SDS011;8168;49.036;7.690;2023-02-18T17:03:59;2.70;;;2.50;;
16127;SDS011;8168;49.036;7.690;2023-02-18T17:06:31;3.40;;;3.03;;
16127;SDS011;8168;49.036;7.690;2023-02-18T17:09:05;2.87;;;2.40;;
16127;SDS011;8168;49.036;7.690;2023-02-18T17:11:46;3.83;;;2.73;;
16127;SDS011;8168;49.036;7.690;2023-02-18T17:14:19;3.77;;;2.90;;
16127;SDS011;8168;49.036;7.690;2023-02-18T17:16:51;3.10;;;2.77;;
16127;SDS011;8168;49.036;7.690;2023-02-18T17:19:23;3.00;;;2.50;;
16127;SDS011;8168;49.036;7.690;2023-02-18T17:21:53;2.87;;;2.57;;
16127;SDS011;8168;49.036;7.690;2023-02-18T17:24:24;2.63;;;2.43;;
16127;SDS011;8168;49.036;7.690;2023-02-18T17:26:54;4.23;;;2.80;;
16127;SDS011;8168;49.036;7.690;2023-02-18T17:29:25;2.33;;;2.13;;
16127;SDS011;8168;49.036;7.690;2023-02-18T17:31:56;2.37;;;2.13;;
16127;SDS011;8168;49.036;7.690;2023-02-18T17:34:27;2.90;;;2.30;;
16127;SDS011;8168;49.036;7.690;2023-02-18T17:37:00;4.27;;;2.40;;
16127;SDS011;8168;49.036;7.690;2023-02-18T17:39:31;4.10;;;2.67;;
16127;SDS011;8168;49.036;7.690;2023-02-18T17:42:02;2.90;;;2.70;;
16127;SDS011;8168;49.036;7.690;2023-02-18T17:44:33;4.17;;;3.07;;
16127;SDS011;8168;49.036;7.690;2023-02-18T17:47:03;2.97;;;2.67;;
16127;SDS011;8168;49.036;7.690;2023-02-18T17:49:34;6.47;;;5.03;;
16127;SDS011;8168;49.036;7.690;2023-02-18T17:52:05;2.90;;;2.60;;
16127;SDS011;8168;49.036;7.690;2023-02-18T17:54:35;3.27;;;2.80;;
16127;SDS011;8168;49.036;7.690;2023-02-18T17:57:06;4.50;;;3.13;;
16127;SDS011;8168;49.036;7.690;2023-02-18T17:59:37;4.87;;;3.33;;
16127;SDS011;8168;49.036;7.690;2023-02-18T18:02:13;3.50;;;3.17;;
16127;SDS011;8168;49.036;7.690;2023-02-18T18:04:55;4.60;;;3.17;;
16127;SDS011;8168;49.036;7.690;2023-02-18T18:07:26;3.63;;;2.87;;
16127;SDS011;8168;49.036;7.690;2023-02-18T18:09:56;3.87;;;3.13;;
16127;SDS011;8168;49.036;7.690;2023-02-18T18:12:27;5.50;;;3.93;;
16127;SDS011;8168;49.036;7.690;2023-02-18T18:14:59;4.60;;;3.67;;
16127;SDS011;8168;49.036;7.690;2023-02-18T18:17:31;4.83;;;3.30;;
16127;SDS011;8168;49.036;7.690;2023-02-18T18:20:02;4.10;;;3.57;;
16127;SDS011;8168;49.036;7.690;2023-02-18T18:22:36;4.10;;;3.67;;
16127;SDS011;8168;49.036;7.690;2023-02-18T18:25:20;4.30;;;3.40;;
16127;SDS011;8168;49.036;7.690;2023-02-18T18:27:56;5.00;;;3.90;;
16127;SDS011;8168;49.036;7.690;2023-02-18T18:30:27;3.67;;;3.37;;
16127;SDS011;8168;49.036;7.690;2023-02-18T18:33:00;4.53;;;3.60;;
16127;SDS011;8168;49.036;7.690;2023-02-18T18:35:32;5.47;;;3.60;;
16127;SDS011;8168;49.036;7.690;2023-02-18T18:38:04;3.80;;;3.40;;